Time;durP1;ratioP1;P1;durP2;ratioP2;P2;SDS_P1;SDS_P2;PMS_P1;PMS_P2;Temp;Humidity;BMP_temperature;BMP_pressure;BME280_temperature;BME280_humidity;BME280_pressure;Samples;Min_cycle;Max_cycle;Signal;HPM_P1;HPM_P2
2022/12/22 03:27:25;;;;;;;;;1.00;0.00;;;;;21.25;42.27;100111.25;5078330;28;45451;-39
2022/12/22 03:29:50;;;;;;;;;0.50;0.25;;;;;21.25;41.99;100113.88;5078340;27;45397;-38
2022/12/22 03:32:16;;;;;;;;;2.00;1.00;;;;;21.25;42.50;100129.69;5078359;27;45393;-39
2022/12/22 03:34:41;;;;;;;;;1.75;0.00;;;;;21.25;42.45;100121.78;5078309;27;51782;-40
2022/12/22 03:37:06;;;;;;;;;2.33;1.00;;;;;21.25;42.33;100137.59;5077911;27;60237;-42
2022/12/22 03:39:32;;;;;;;;;0.00;0.00;;;;;21.23;42.46;100128.94;5077893;27;45325;-41
2022/12/22 03:47:24;;;;;;;;;2.00;0.00;;;;;21.20;42.46;100137.09;5079300;28;45813;-41
2022/12/22 03:49:50;;;;;;;;;0.00;0.00;;;;;21.18;42.17;100133.72;5080208;28;62965;-41
2022/12/22 03:52:15;;;;;;;;;0.67;0.00;;;;;21.19;42.30;100140.66;5077480;28;59715;-42
2022/12/22 03:54:40;;;;;;;;;1.00;1.00;;;;;21.17;42.02;100135.47;5078261;27;45460;-40
2022/12/22 03:57:06;;;;;;;;;0.00;0.00;;;;;21.18;42.25;100138.97;5076129;28;54647;-38
2022/12/22 03:59:31;;;;;;;;;0.00;0.00;;;;;21.17;42.23;100146.03;5078156;27;45267;-39
2022/12/22 04:01:56;;;;;;;;;0.25;0.00;;;;;21.17;42.20;100142.56;5078107;27;45442;-41
2022/12/22 04:04:24;;;;;;;;;0.67;0.33;;;;;21.15;42.16;100136.53;5077514;28;51340;-41
2022/12/22 04:06:50;;;;;;;;;0.00;0.00;;;;;21.15;42.36;100132.13;5077720;27;46283;-40
2022/12/22 04:09:15;;;;;;;;;0.00;0.00;;;;;21.14;42.51;100132.22;5077714;27;45401;-41
2022/12/22 04:14:25;;;;;;;;;1.00;0.00;;;;;21.10;42.42;100128.13;5094618;27;45267;-41
2022/12/22 04:16:50;;;;;;;;;0.00;0.00;;;;;21.11;41.97;100151.72;5080178;27;45483;-40
2022/12/22 04:19:15;;;;;;;;;0.00;0.00;;;;;21.08;42.18;100146.66;5079078;28;63517;-40
2022/12/22 04:21:42;;;;;;;;;0.75;0.50;;;;;21.10;42.14;100154.47;5078582;27;45743;-40
2022/12/22 04:24:08;;;;;;;;;0.00;0.00;;;;;21.08;41.94;100170.38;5078230;27;45322;-40
2022/12/22 04:26:33;;;;;;;;;1.00;0.00;;;;;21.08;42.47;100177.44;5078011;27;45370;-41
2022/12/22 04:28:59;;;;;;;;;1.25;1.00;;;;;21.09;42.42;100189.69;5077841;27;45504;-39
2022/12/22 04:31:24;;;;;;;;;0.00;0.00;;;;;21.09;42.52;100210.75;5077788;27;45420;-41
2022/12/22 04:33:50;;;;;;;;;2.00;0.50;;;;;21.09;41.80;100208.13;5076374;28;45641;-41
2022/12/22 04:36:15;;;;;;;;;0.50;0.00;;;;;21.07;42.33;100188.94;5077058;27;45274;-39
2022/12/22 04:38:41;;;;;;;;;0.00;0.00;;;;;21.07;41.94;100215.28;5077282;27;45374;-40
2022/12/22 04:41:07;;;;;;;;;1.00;0.00;;;;;21.05;41.97;100202.22;5077521;27;45428;-40
2022/12/22 04:43:32;;;;;;;;;0.25;0.25;;;;;21.05;42.18;100218.03;5082012;27;45469;-39
2022/12/22 04:45:58;;;;;;;;;0.00;0.00;;;;;21.06;41.97;100237.31;5081421;27;46045;-41
2022/12/22 04:48:24;;;;;;;;;1.00;1.00;;;;;21.06;42.23;100247.84;5078471;27;45312;-40
2022/12/22 04:50:51;;;;;;;;;2.00;0.50;;;;;21.06;42.26;100261.84;5093725;27;45402;-39
2022/12/22 04:53:17;;;;;;;;;1.50;1.00;;;;;21.04;42.41;100257.63;5080637;27;45319;-40
2022/12/22 04:55:49;;;;;;;;;0.00;0.00;;;;;21.05;42.13;100265.47;5080102;27;46543;-39
2022/12/22 04:58:15;;;;;;;;;0.00;0.00;;;;;21.04;42.54;100270.81;5077289;27;45725;-43
2022/12/22 05:00:40;;;;;;;;;0.75;0.25;;;;;21.04;42.20;100271.66;5077700;27;45467;-39
2022/12/22 05:03:07;;;;;;;;;3.00;0.00;;;;;21.05;42.38;100277.78;5077000;27;45508;-39
2022/12/22 05:05:33;;;;;;;;;0.00;0.00;;;;;21.04;42.03;100291.88;5078379;27;46513;-39
2022/12/22 05:07:58;;;;;;;;;0.00;0.00;;;;;21.02;42.05;100299.91;5092072;27;45220;-38
2022/12/22 05:10:24;;;;;;;;;0.50;0.50;;;;;21.04;42.22;100305.06;5092215;27;45371;-40
2022/12/22 05:12:55;;;;;;;;;0.00;0.00;;;;;21.06;42.48;100311.06;5091626;28;49638;-38
2022/12/22 05:15:32;;;;;;;;;0.00;0.00;;;;;21.08;42.16;100311.81;5101357;27;46805;-39
2022/12/22 05:17:59;;;;;;;;;1.25;0.25;;;;;21.11;41.81;100324.81;5095241;27;45417;-43
2022/12/22 05:20:25;;;;;;;;;0.00;0.00;;;;;21.12;42.45;100329.09;5094466;27;45390;-41
2022/12/22 05:22:50;;;;;;;;;0.00;0.00;;;;;21.18;41.69;100323.44;5077305;27;45360;-40
2022/12/22 05:25:16;;;;;;;;;0.00;0.00;;;;;21.22;42.06;100324.09;5075693;27;45426;-40
2022/12/22 05:27:43;;;;;;;;;0.00;0.00;;;;;21.26;42.03;100323.78;5076601;27;45772;-39
2022/12/22 05:30:09;;;;;;;;;4.00;0.00;;;;;21.30;42.08;100327.91;5076396;27;45387;-41
2022/12/22 05:32:34;;;;;;;;;0.00;0.00;;;;;21.33;41.84;100339.19;5076946;27;45287;-41
2022/12/22 05:35:01;;;;;;;;;0.00;0.00;;;;;21.38;41.79;100345.00;5076363;27;45222;-40
2022/12/22 05:37:27;;;;;;;;;0.00;0.00;;;;;21.38;41.67;100340.59;5076617;28;45369;-40
2022/12/22 05:39:52;;;;;;;;;0.00;0.00;;;;;21.43;41.75;100349.00;5077742;27;45299;-41
2022/12/22 05:42:34;;;;;;;;;0.00;0.00;;;;;21.46;42.09;100350.59;5077437;28;53934;-41
2022/12/22 05:45:05;;;;;;;;;0.00;0.00;;;;;21.49;41.86;100360.94;5076270;27;46207;-41
2022/12/22 05:47:30;;;;;;;;;0.00;0.00;;;;;21.53;41.50;100372.13;5076232;28;45697;-40
2022/12/22 05:49:55;;;;;;;;;0.00;0.00;;;;;21.54;41.36;100374.66;5076221;27;45371;-40
2022/12/22 05:52:20;;;;;;;;;0.50;0.00;;;;;21.58;41.66;100375.31;5076260;27;45550;-40
2022/12/22 05:54:46;;;;;;;;;0.00;0.00;;;;;21.59;41.39;100388.41;5076039;27;46669;-41
2022/12/22 05:57:11;;;;;;;;;0.00;0.00;;;;;21.60;41.59;100395.38;5075748;27;55045;-40
2022/12/22 05:59:36;;;;;;;;;10.00;9.25;;;;;21.61;41.24;100386.50;5076606;27;45303;-41
2022/12/22 06:02:02;;;;;;;;;79.00;73.00;;;;;21.63;41.31;100389.03;5075822;27;50382;-39
2022/12/22 06:04:27;;;;;;;;;126.67;119.33;;;;;21.64;41.41;100384.63;5074419;28;53593;-39
2022/12/22 06:06:52;;;;;;;;;131.33;127.33;;;;;21.65;41.52;100396.88;5076766;27;45330;-39
2022/12/22 06:09:17;;;;;;;;;130.00;125.67;;;;;21.66;41.33;100415.22;5080006;28;48738;-40
2022/12/22 06:11:43;;;;;;;;;112.33;107.00;;;;;21.67;41.48;100413.41;5080241;28;46632;-41
2022/12/22 06:14:08;;;;;;;;;109.67;103.00;;;;;21.66;41.32;100409.13;5079671;27;45377;-39
2022/12/22 06:16:33;;;;;;;;;82.00;76.67;;;;;21.70;41.48;100415.84;5079224;27;45467;-42
2022/12/22 06:18:59;;;;;;;;;53.67;43.67;;;;;21.74;41.07;100417.34;5079293;27;45339;-41
2022/12/22 06:21:24;;;;;;;;;46.67;39.67;;;;;21.74;41.50;100423.44;5079907;27;45571;-41
2022/12/22 06:23:49;;;;;;;;;54.50;43.25;;;;;21.73;41.09;100420.94;5085014;27;45518;-41
2022/12/22 06:26:15;;;;;;;;;50.00;39.00;;;;;21.72;41.46;100424.50;5098072;27;45282;-40
2022/12/22 06:28:40;;;;;;;;;49.00;41.00;;;;;21.71;41.63;100431.59;5095366;27;45314;-43
2022/12/22 06:31:05;;;;;;;;;52.67;42.00;;;;;21.71;41.31;100438.66;5079982;27;45413;-41
2022/12/22 06:33:31;;;;;;;;;49.33;41.33;;;;;21.71;41.72;100438.66;5079253;28;63287;-40
2022/12/22 06:35:56;;;;;;;;;51.33;43.67;;;;;21.69;41.62;100435.25;5080321;28;63719;-40
2022/12/22 06:38:21;;;;;;;;;51.75;43.25;;;;;21.65;41.23;100444.34;5079047;27;45374;-42
2022/12/22 06:40:47;;;;;;;;;50.75;41.75;;;;;21.66;41.43;100456.59;5079106;27;45341;-43
2022/12/22 06:43:12;;;;;;;;;52.00;43.33;;;;;21.67;41.36;100458.25;5079211;27;45443;-41
2022/12/22 06:45:40;;;;;;;;;48.25;39.25;;;;;21.62;41.58;100456.78;5094724;27;45370;-41
2022/12/22 06:48:06;;;;;;;;;49.00;41.25;;;;;21.65;41.86;100465.44;5078944;27;45316;-41
2022/12/22 06:50:31;;;;;;;;;48.25;40.00;;;;;21.64;41.44;100466.38;5078950;27;45363;-41
2022/12/22 06:52:56;;;;;;;;;49.50;40.00;;;;;21.61;41.66;100472.69;5078651;27;45405;-42
2022/12/22 06:55:22;;;;;;;;;50.00;39.67;;;;;21.60;41.26;100469.22;5078361;27;51865;-41
2022/12/22 06:57:47;;;;;;;;;47.00;40.25;;;;;21.59;41.85;100462.25;5077552;28;45300;-40
2022/12/22 07:00:13;;;;;;;;;47.25;39.00;;;;;21.58;41.63;100478.97;5079534;27;45466;-40
2022/12/22 07:02:38;;;;;;;;;50.25;40.50;;;;;21.58;41.65;100476.34;5080196;27;46730;-39
2022/12/22 07:05:04;;;;;;;;;48.67;39.67;;;;;21.59;41.47;100478.06;5079947;27;45314;-39
2022/12/22 07:07:29;;;;;;;;;44.50;38.25;;;;;21.54;41.48;100472.22;5078667;27;45354;-39
2022/12/22 07:09:55;;;;;;;;;47.67;38.00;;;;;21.57;41.74;100476.47;5078657;27;45342;-39
2022/12/22 07:12:21;;;;;;;;;48.25;38.50;;;;;21.55;41.74;100481.81;5078083;27;46111;-41
2022/12/22 07:14:46;;;;;;;;;46.75;37.50;;;;;21.55;41.81;100497.63;5082785;27;45752;-40
2022/12/22 07:17:12;;;;;;;;;43.00;36.67;;;;;21.53;41.63;100490.78;5088135;27;58016;-41
2022/12/22 07:19:37;;;;;;;;;47.00;38.00;;;;;21.55;41.79;100502.06;5098511;28;44987;-39
2022/12/22 07:22:02;;;;;;;;;46.75;37.75;;;;;21.52;41.59;100503.13;5110132;27;45425;-40
2022/12/22 07:24:28;;;;;;;;;42.00;35.50;;;;;21.53;41.69;100510.09;5096979;27;45357;-40
2022/12/22 07:26:54;;;;;;;;;40.25;34.75;;;;;21.50;41.65;100502.38;5089143;27;45250;-40
2022/12/22 07:29:19;;;;;;;;;41.50;34.50;;;;;21.49;41.58;100503.31;5088970;27;44962;-39
2022/12/22 07:31:45;;;;;;;;;41.50;36.50;;;;;21.50;41.92;100502.38;5083371;28;46825;-41
2022/12/22 07:34:10;;;;;;;;;42.25;37.25;;;;;21.50;41.94;100510.28;5079363;27;45375;-39
2022/12/22 07:36:36;;;;;;;;;37.75;33.25;;;;;21.49;41.92;100508.59;5078612;27;45369;-40
2022/12/22 07:39:01;;;;;;;;;36.67;30.67;;;;;21.49;41.72;100518.31;5077959;27;45834;-39
2022/12/22 07:44:10;;;;;;;;;23.00;19.00;;;;;21.42;41.77;100525.75;5077891;28;45897;-38
2022/12/22 07:46:37;;;;;;;;;17.67;12.33;;;;;21.35;42.14;100529.72;5077780;27;48547;-40
2022/12/22 07:51:48;;;;;;;;;15.75;14.50;;;;;21.25;42.21;100522.41;5077769;28;45863;-40
2022/12/22 07:54:15;;;;;;;;;12.75;12.75;;;;;21.19;41.94;100522.78;5078329;27;45443;-38
2022/12/22 07:56:41;;;;;;;;;15.75;11.25;;;;;21.18;42.02;100521.09;5078893;27;45441;-39
2022/12/22 07:59:07;;;;;;;;;16.75;14.25;;;;;21.14;42.08;100533.63;5078670;27;45514;-39
2022/12/22 08:01:33;;;;;;;;;15.25;10.00;;;;;21.12;42.17;100526.75;5077994;27;46001;-40
2022/12/22 08:03:58;;;;;;;;;13.25;11.25;;;;;21.09;42.09;100532.22;5077707;27;45452;-40
2022/12/22 08:06:24;;;;;;;;;12.50;11.25;;;;;21.03;42.12;100533.44;5076716;28;45367;-37
2022/12/22 08:08:50;;;;;;;;;12.00;8.25;;;;;21.03;41.96;100543.13;5077883;27;45631;-40
2022/12/22 08:11:16;;;;;;;;;10.25;8.50;;;;;20.98;42.28;100536.38;5093471;27;46300;-39
2022/12/22 08:13:42;;;;;;;;;9.75;5.25;;;;;20.97;42.13;100534.69;5077653;27;45268;-40
2022/12/22 08:16:10;;;;;;;;;9.25;6.25;;;;;20.93;42.15;100538.44;5077813;27;45323;-39
2022/12/22 08:18:36;;;;;;;;;15.50;9.50;;;;;20.96;42.60;100548.78;5077562;27;45149;-40
2022/12/22 08:21:03;;;;;;;;;9.00;8.75;;;;;20.97;42.29;100550.50;5077439;27;46629;-38
2022/12/22 08:23:28;;;;;;;;;13.00;8.00;;;;;20.97;42.59;100553.13;5077712;27;45955;-38
2022/12/22 08:26:15;;;;;;;;;9.00;7.25;;;;;20.97;42.28;100545.22;5080234;27;45169;-38
2022/12/22 08:28:46;;;;;;;;;11.50;7.00;;;;;20.97;42.66;100549.63;5079265;28;45699;-38
2022/12/22 08:31:12;;;;;;;;;15.00;8.75;;;;;20.97;42.22;100550.50;5076340;27;45436;-39
2022/12/22 08:33:37;;;;;;;;;9.00;9.00;;;;;21.00;42.65;100559.97;5077256;27;45291;-39
2022/12/22 11:12:45;;;;;;;;;7.75;6.75;;;;;20.68;42.54;100560.13;4961695;28;45396;-46
2022/12/22 11:15:27;;;;;;;;;7.00;5.00;;;;;20.68;42.94;100562.75;4989917;28;45445;-48
2022/12/22 11:18:04;;;;;;;;;10.25;6.25;;;;;20.68;42.51;100552.22;4955790;28;45503;-52
2022/12/22 11:21:23;;;;;;;;;7.75;5.75;;;;;20.67;42.70;100548.75;4978162;28;45157;-50
2022/12/22 11:24:26;;;;;;;;;11.25;7.00;;;;;20.67;42.39;100563.69;4902143;29;45826;-43
2022/12/22 11:27:04;;;;;;;;;12.50;5.25;;;;;20.69;42.82;100551.28;4900698;29;45337;-44
2022/12/22 11:29:52;;;;;;;;;8.75;6.50;;;;;20.65;42.75;100545.38;4954234;28;45262;-52
2022/12/22 11:32:29;;;;;;;;;14.50;8.00;;;;;20.68;42.60;100550.44;4959844;28;46404;-53
2022/12/22 11:35:18;;;;;;;;;6.25;5.25;;;;;20.63;42.57;100544.63;4960107;28;45770;-51
2022/12/22 11:38:03;;;;;;;;;8.00;5.00;;;;;20.68;42.56;100550.44;4960491;28;45442;-52
2022/12/22 11:40:36;;;;;;;;;8.00;5.25;;;;;20.69;42.70;100549.50;4964360;28;45235;-47
2022/12/22 11:43:27;;;;;;;;;7.00;6.25;;;;;20.66;42.59;100549.69;4979969;28;45341;-54
2022/12/22 11:45:59;;;;;;;;;9.75;5.75;;;;;20.66;42.68;100541.81;4992550;28;45395;-49
2022/12/22 11:48:39;;;;;;;;;6.25;6.25;;;;;20.68;42.41;100547.78;4992275;28;45182;-54
2022/12/22 11:51:30;;;;;;;;;7.75;5.25;;;;;20.68;42.55;100544.34;4980585;28;45313;-51
2022/12/22 11:54:31;;;;;;;;;7.00;6.25;;;;;20.66;42.76;100541.81;4982396;28;46337;-52
2022/12/22 11:57:15;;;;;;;;;9.25;6.00;;;;;20.67;42.68;100532.94;4986005;28;45303;-54
2022/12/22 11:59:46;;;;;;;;;10.25;5.50;;;;;20.65;42.65;100524.31;4985437;28;45393;-54
2022/12/22 12:02:58;;;;;;;;;5.00;3.50;;;;;20.66;42.65;100519.88;4974417;28;45423;-51
2022/12/22 12:05:48;;;;;;;;;6.50;5.00;;;;;20.65;42.37;100520.81;4959798;28;45728;-49
2022/12/22 12:08:38;;;;;;;;;12.50;6.00;;;;;20.64;42.51;100519.97;4959231;28;45316;-53
2022/12/22 12:11:31;;;;;;;;;9.25;5.25;;;;;20.63;42.74;100517.41;4959837;28;45371;-54
2022/12/22 12:14:16;;;;;;;;;7.00;5.25;;;;;20.61;42.85;100508.78;4959847;28;45580;-54
2022/12/22 12:16:55;;;;;;;;;6.50;4.75;;;;;20.57;42.64;100510.75;4959989;28;45443;-50
2022/12/22 12:19:27;;;;;;;;;7.00;5.75;;;;;20.59;43.23;100503.59;4971431;28;45229;-52
2022/12/22 12:22:02;;;;;;;;;6.75;4.50;;;;;20.60;43.14;100507.94;4974463;28;45201;-45
2022/12/22 12:24:52;;;;;;;;;7.25;6.50;;;;;20.62;43.07;100498.16;4964632;28;45543;-52
2022/12/22 12:27:45;;;;;;;;;8.50;5.50;;;;;20.65;42.78;100492.72;4968449;28;45423;-51
2022/12/22 12:30:16;;;;;;;;;7.25;5.50;;;;;20.68;43.07;100492.50;4971792;28;45406;-51
2022/12/22 12:33:00;;;;;;;;;5.00;4.75;;;;;20.75;42.88;100492.16;4964031;28;45151;-52
2022/12/22 12:35:57;;;;;;;;;8.75;4.75;;;;;20.78;42.99;100479.66;4966230;28;45387;-52
2022/12/22 12:38:45;;;;;;;;;9.75;6.25;;;;;20.79;42.72;100472.59;4961570;28;45371;-50
2022/12/22 12:41:23;;;;;;;;;8.50;4.00;;;;;20.85;42.81;100473.06;4968271;28;45347;-48
2022/12/22 12:43:53;;;;;;;;;11.25;5.75;;;;;20.88;43.12;100461.50;4959237;28;45470;-50
2022/12/22 12:46:54;;;;;;;;;7.00;6.00;;;;;20.90;42.72;100451.69;4959191;28;45355;-52
2022/12/22 12:49:34;;;;;;;;;9.50;5.00;;;;;20.95;42.67;100457.53;4927029;28;47164;-48
2022/12/22 12:52:03;;;;;;;;;6.50;6.00;;;;;20.93;42.35;100451.50;4958506;28;45305;-45
2022/12/22 12:54:34;;;;;;;;;8.75;6.00;;;;;20.99;42.80;100445.84;4960284;28;45266;-49
2022/12/22 12:57:10;;;;;;;;;13.75;7.25;;;;;21.03;42.71;100432.47;4966291;28;45213;-50
2022/12/22 12:59:38;;;;;;;;;12.00;6.25;;;;;21.05;42.40;100442.00;4972030;28;45865;-51
2022/12/22 13:02:26;;;;;;;;;8.50;6.75;;;;;21.09;42.79;100429.47;4971095;28;45400;-54
2022/12/22 13:05:06;;;;;;;;;10.00;7.00;;;;;21.14;42.39;100430.00;4968772;28;45284;-47
2022/12/22 13:08:03;;;;;;;;;10.50;7.00;;;;;21.15;42.31;100434.31;4966945;28;45574;-50
2022/12/22 13:10:28;;;;;;;;;8.25;5.00;;;;;21.15;42.67;100429.91;4965931;28;45502;-51
2022/12/22 13:12:53;;;;;;;;;9.75;5.00;;;;;21.20;42.77;100419.06;4969685;28;48250;-53
2022/12/22 13:15:36;;;;;;;;;8.75;5.75;;;;;21.18;42.51;100415.69;4967781;28;45254;-52
2022/12/22 13:18:08;;;;;;;;;4.50;4.00;;;;;21.20;42.69;100405.91;4964944;28;45355;-52
2022/12/22 13:20:35;;;;;;;;;6.00;4.75;;;;;21.23;42.25;100407.47;4975124;28;45238;-52
2022/12/22 13:23:03;;;;;;;;;7.00;5.00;;;;;21.27;42.62;100398.44;4967063;28;45726;-53
2022/12/22 13:25:41;;;;;;;;;9.75;5.25;;;;;21.28;42.29;100400.97;4972565;28;44778;-48
2022/12/22 13:28:14;;;;;;;;;8.75;4.25;;;;;21.29;42.35;100402.66;4973943;28;45384;-55
2022/12/22 13:30:43;;;;;;;;;10.75;6.50;;;;;21.29;42.30;100389.47;4972654;28;46374;-44
2022/12/22 13:33:14;;;;;;;;;7.25;6.00;;;;;21.31;42.22;100395.50;4978023;28;45753;-47
2022/12/22 13:35:41;;;;;;;;;8.25;4.25;;;;;21.33;42.27;100395.38;4979161;28;44796;-52
2022/12/22 13:38:26;;;;;;;;;7.75;5.00;;;;;21.31;42.17;100384.09;4979958;28;44945;-49
2022/12/22 13:40:52;;;;;;;;;7.25;5.25;;;;;21.30;42.22;100377.97;4980094;28;45479;-42
2022/12/22 13:43:19;;;;;;;;;8.75;4.00;;;;;21.32;42.42;100380.50;4981395;28;44793;-41
2022/12/22 13:45:51;;;;;;;;;6.00;4.25;;;;;21.30;42.43;100367.44;4979119;28;45155;-50
2022/12/22 13:48:16;;;;;;;;;4.50;4.50;;;;;21.33;42.16;100370.81;4988646;28;45223;-55
2022/12/22 13:50:46;;;;;;;;;4.33;4.33;;;;;21.31;42.29;100366.50;4981990;28;45179;-52
2022/12/22 13:53:18;;;;;;;;;3.75;3.25;;;;;21.30;42.48;100370.06;4966701;28;45910;-50
2022/12/22 13:55:46;;;;;;;;;3.75;3.75;;;;;21.29;42.37;100355.22;4980477;28;45285;-50
2022/12/22 13:58:28;;;;;;;;;5.50;5.00;;;;;21.34;42.38;100367.22;4991440;28;45469;-50
2022/12/22 14:01:09;;;;;;;;;4.50;3.25;;;;;21.34;42.48;100361.94;4987695;28;47013;-44
2022/12/22 14:03:35;;;;;;;;;5.75;4.00;;;;;21.35;42.35;100361.88;4982863;28;45388;-44
2022/12/22 14:06:00;;;;;;;;;7.75;6.00;;;;;21.34;42.25;100357.53;4983681;28;45343;-51
2022/12/22 14:08:25;;;;;;;;;7.50;4.50;;;;;21.31;42.41;100355.97;4978008;28;45571;-52
2022/12/22 14:10:53;;;;;;;;;7.25;4.00;;;;;21.28;42.44;100340.34;4979285;28;46989;-47
2022/12/22 14:13:22;;;;;;;;;8.50;4.00;;;;;21.36;42.33;100352.16;4988310;28;45293;-50
2022/12/22 14:15:58;;;;;;;;;6.00;4.00;;;;;21.38;42.40;100334.44;4984119;28;45229;-58
2022/12/22 14:18:25;;;;;;;;;1.50;1.50;;;;;21.44;42.19;100336.69;4994024;28;45345;-49
2022/12/22 14:20:51;;;;;;;;;7.00;4.25;;;;;21.46;42.27;100345.31;4991086;28;46466;-41
2022/12/22 14:23:23;;;;;;;;;3.50;2.00;;;;;21.50;42.08;100340.72;4978659;28;45384;-42
2022/12/22 14:25:51;;;;;;;;;6.00;2.00;;;;;21.50;42.27;100336.25;4969464;28;45305;-43
2022/12/22 14:28:36;;;;;;;;;5.50;3.50;;;;;21.51;42.32;100335.31;4965081;28;45470;-46
2022/12/22 14:31:04;;;;;;;;;5.50;3.50;;;;;21.52;41.97;100334.38;4963327;28;45431;-43
2022/12/22 14:33:32;;;;;;;;;5.25;3.00;;;;;21.49;42.01;100323.19;4960824;28;45333;-42
2022/12/22 14:36:15;;;;;;;;;4.75;4.25;;;;;21.54;42.22;100329.84;4960756;28;45373;-48
2022/12/22 14:38:46;;;;;;;;;2.50;1.50;;;;;21.58;42.02;100330.47;4962345;28;45463;-48
2022/12/22 14:41:40;;;;;;;;;7.00;2.50;;;;;21.55;42.14;100325.41;4966617;28;47335;-55
2022/12/22 14:44:12;;;;;;;;;4.00;2.25;;;;;21.60;41.83;100305.72;4975495;28;45197;-46
2022/12/22 14:46:42;;;;;;;;;8.75;3.75;;;;;21.62;42.00;100301.19;4973543;28;45432;-49
2022/12/22 14:49:18;;;;;;;;;5.25;5.25;;;;;21.60;42.14;100291.69;4984157;28;44871;-54
2022/12/22 14:52:05;;;;;;;;;5.25;3.00;;;;;21.55;41.95;100275.31;4961950;28;46218;-53
2022/12/22 14:54:30;;;;;;;;;3.50;2.00;;;;;21.56;41.86;100280.47;4965352;28;45825;-51
2022/12/22 14:57:03;;;;;;;;;4.25;3.00;;;;;21.55;42.20;100272.66;4966619;28;45381;-48
2022/12/22 14:59:28;;;;;;;;;4.25;4.00;;;;;21.52;42.13;100262.31;4981014;28;45322;-54
2022/12/22 15:02:21;;;;;;;;;6.25;4.25;;;;;21.50;42.01;100256.34;4968891;28;47717;-54
2022/12/22 15:04:47;;;;;;;;;5.75;4.00;;;;;21.47;42.06;100246.81;4967893;28;45739;-53
2022/12/22 15:07:18;;;;;;;;;6.50;3.75;;;;;21.43;42.00;100245.34;4949431;28;45565;-54
2022/12/22 15:09:43;;;;;;;;;8.50;4.00;;;;;21.41;42.21;100236.72;4964903;28;45556;-54
2022/12/22 15:12:15;;;;;;;;;6.75;4.00;;;;;21.40;42.42;100235.03;4976171;28;45257;-51
2022/12/22 15:14:41;;;;;;;;;4.75;3.75;;;;;21.37;42.33;100232.59;4971882;28;45412;-49
2022/12/22 15:17:20;;;;;;;;;4.00;3.50;;;;;21.34;42.28;100224.88;4966769;28;45202;-53
2022/12/22 15:19:45;;;;;;;;;4.50;3.00;;;;;21.34;42.36;100216.97;4975265;28;45159;-53
2022/12/22 15:22:11;;;;;;;;;5.00;3.00;;;;;21.31;42.26;100210.97;4960377;28;46161;-54
2022/12/22 15:24:36;;;;;;;;;4.00;2.25;;;;;21.30;42.37;100187.34;4958601;28;45422;-50
2022/12/22 15:27:01;;;;;;;;;2.00;2.00;;;;;21.28;42.25;100184.81;4959811;28;64898;-54
2022/12/22 15:29:26;;;;;;;;;3.25;3.00;;;;;21.27;42.35;100177.03;4960085;28;45271;-54
2022/12/22 15:31:52;;;;;;;;;6.67;3.00;;;;;21.24;41.97;100170.16;4958972;28;59042;-54
2022/12/22 15:34:24;;;;;;;;;5.00;3.00;;;;;21.23;42.48;100168.47;4960012;28;45332;-52
2022/12/22 15:36:49;;;;;;;;;3.50;3.50;;;;;21.23;42.47;100160.56;4959563;28;45451;-44
2022/12/22 15:39:16;;;;;;;;;3.00;3.00;;;;;21.22;42.37;100158.88;4963464;28;45533;-53
2022/12/22 15:41:43;;;;;;;;;4.50;3.00;;;;;21.21;42.30;100170.41;4967261;28;46344;-53
2022/12/22 15:44:08;;;;;;;;;6.00;3.00;;;;;21.21;42.35;100156.34;4962465;28;45324;-52
2022/12/22 15:46:34;;;;;;;;;6.00;2.00;;;;;21.19;42.41;100151.22;4941929;28;45368;-51
2022/12/22 15:49:01;;;;;;;;;7.75;4.25;;;;;21.19;42.51;100148.56;4959485;28;45210;-53
2022/12/22 15:51:28;;;;;;;;;8.00;3.75;;;;;21.17;42.54;100139.91;4964841;28;46266;-47
2022/12/22 15:53:55;;;;;;;;;4.75;3.25;;;;;21.14;42.58;100135.72;4946799;28;45804;-45
2022/12/22 15:56:24;;;;;;;;;2.00;2.00;;;;;21.15;42.13;100121.59;4964436;28;45262;-46
2022/12/22 15:58:50;;;;;;;;;1.00;0.00;;;;;21.13;42.56;100107.69;4967259;28;45243;-44
2022/12/22 16:01:15;;;;;;;;;7.00;4.00;;;;;21.13;42.46;100101.53;4964584;28;45956;-52
2022/12/22 16:03:40;;;;;;;;;7.00;3.25;;;;;21.12;42.56;100099.84;4967993;28;45316;-47
2022/12/22 16:06:12;;;;;;;;;4.00;4.00;;;;;21.11;42.71;100101.66;4962116;28;65072;-52
2022/12/22 16:08:40;;;;;;;;;4.00;2.00;;;;;21.09;42.71;100090.38;4964854;28;45318;-51
2022/12/22 16:11:07;;;;;;;;;3.75;3.50;;;;;21.04;42.35;100076.69;4975859;28;47270;-53
2022/12/22 16:13:34;;;;;;;;;6.00;4.00;;;;;21.09;42.55;100087.75;4963788;28;45943;-49
2022/12/22 16:15:59;;;;;;;;;4.25;2.25;;;;;21.09;42.32;100079.03;4944748;28;45437;-50
2022/12/22 16:18:24;;;;;;;;;6.33;3.00;;;;;21.08;42.53;100083.44;4964515;28;61070;-49
2022/12/22 16:20:50;;;;;;;;;3.50;2.75;;;;;21.06;42.35;100081.84;4959193;28;63339;-49
2022/12/22 16:23:22;;;;;;;;;4.00;3.00;;;;;21.06;42.49;100080.06;4962633;28;45826;-56
2022/12/22 16:25:47;;;;;;;;;6.50;3.50;;;;;21.07;42.83;100075.63;4978428;28;45515;-53
2022/12/22 16:28:18;;;;;;;;;5.50;2.50;;;;;21.11;42.93;100069.22;4964904;28;45416;-54
2022/12/22 16:30:44;;;;;;;;;4.00;2.50;;;;;21.13;42.74;100059.38;4961504;28;46484;-52
2022/12/22 16:33:11;;;;;;;;;0.25;0.25;;;;;21.15;42.93;100062.75;4959918;28;45299;-47
2022/12/22 16:35:37;;;;;;;;;5.25;2.00;;;;;21.16;42.75;100069.72;4969360;28;45343;-53
2022/12/22 16:38:02;;;;;;;;;7.25;3.00;;;;;21.20;42.85;100075.63;4936998;28;45863;-46
2022/12/22 16:40:30;;;;;;;;;2.75;2.75;;;;;21.23;42.78;100070.97;4979771;28;46739;-47
2022/12/22 16:43:26;;;;;;;;;4.50;2.00;;;;;21.28;42.57;100068.88;4964447;28;45293;-46
2022/12/22 16:45:51;;;;;;;;;3.25;2.25;;;;;21.34;42.81;100066.72;4958989;28;45368;-46
2022/12/22 16:48:32;;;;;;;;;4.25;2.75;;;;;21.40;42.46;100066.31;4958924;28;51488;-46
2022/12/22 16:50:58;;;;;;;;;4.00;3.00;;;;;21.42;42.35;100057.31;4940537;28;46167;-47
2022/12/22 16:53:23;;;;;;;;;3.25;3.00;;;;;21.46;42.42;100057.94;4960269;28;45424;-47
2022/12/22 16:55:48;;;;;;;;;1.25;1.25;;;;;21.52;42.19;100054.03;4965257;28;45477;-47
2022/12/22 16:58:13;;;;;;;;;3.50;2.00;;;;;21.58;42.14;100053.59;4962780;28;45297;-48
2022/12/22 17:00:42;;;;;;;;;3.67;2.67;;;;;21.62;42.33;100042.75;4958472;28;59638;-47
2022/12/22 17:03:19;;;;;;;;;4.50;2.75;;;;;21.67;42.10;100041.56;4958091;28;45792;-46
2022/12/22 17:05:49;;;;;;;;;2.75;2.50;;;;;21.65;42.17;100020.59;4958600;28;45365;-47
2022/12/22 17:08:24;;;;;;;;;2.00;2.00;;;;;21.71;42.35;100022.78;4958553;28;45626;-47
2022/12/22 17:10:52;;;;;;;;;3.75;2.00;;;;;21.78;42.18;100044.25;4961374;28;45459;-47
2022/12/22 17:13:18;;;;;;;;;0.25;0.25;;;;;21.82;42.12;100045.72;4976565;28;45138;-48
2022/12/22 17:15:43;;;;;;;;;3.00;2.75;;;;;21.86;42.11;100046.34;4964449;28;45187;-48
2022/12/22 17:18:16;;;;;;;;;0.50;0.00;;;;;21.89;41.85;100044.31;4961678;28;45526;-48
2022/12/22 17:20:42;;;;;;;;;2.00;2.00;;;;;21.92;42.01;100040.63;4959169;28;45364;-48
2022/12/22 17:23:30;;;;;;;;;4.75;2.50;;;;;21.97;41.94;100042.91;4959146;28;45811;-48
2022/12/22 17:25:57;;;;;;;;;2.00;2.00;;;;;21.98;41.86;100045.44;4974687;28;44715;-47
2022/12/22 17:28:23;;;;;;;;;3.00;2.00;;;;;22.02;41.78;100056.59;4975278;28;45321;-48
2022/12/22 17:30:48;;;;;;;;;3.50;3.00;;;;;22.04;41.89;100038.84;4964337;28;46775;-48
2022/12/22 17:33:15;;;;;;;;;1.00;1.00;;;;;22.07;41.99;100038.63;4965249;28;45269;-47
2022/12/22 17:35:41;;;;;;;;;3.25;2.00;;;;;22.09;41.82;100039.38;4963463;28;45493;-47
2022/12/22 17:38:13;;;;;;;;;1.00;1.00;;;;;22.12;41.60;100041.75;4959165;28;45455;-48
2022/12/22 17:40:38;;;;;;;;;1.75;1.75;;;;;22.16;41.92;100043.22;4940969;28;47281;-47
2022/12/22 17:43:03;;;;;;;;;3.50;1.00;;;;;22.15;41.83;100030.97;4959404;28;45304;-47
2022/12/22 17:45:29;;;;;;;;;1.00;1.00;;;;;22.21;41.71;100035.78;4958251;28;45426;-47
2022/12/22 17:47:54;;;;;;;;;1.00;1.00;;;;;22.24;41.58;100040.00;4958177;28;45538;-47
2022/12/22 17:50:22;;;;;;;;;2.75;0.00;;;;;22.23;41.73;100039.16;4940224;28;47001;-47
2022/12/22 17:52:48;;;;;;;;;1.25;1.25;;;;;22.28;41.63;100030.88;4957717;28;45432;-47